Time;durP1;ratioP1;P1;durP2;ratioP2;P2;SDS_P1;SDS_P2;PMS_P1;PMS_P2;Temp;Humidity;BMP_temperature;BMP_pressure;BME280_temperature;BME280_humidity;BME280_pressure;Samples;Min_cycle;Max_cycle;Signal;HPM_P1;HPM_P2
2022/11/01 00:00:19;;;;;;;22.13;13.57;;;12.80;99.90;;;;;;5027727;28;20045;-70
2022/11/01 00:02:44;;;;;;;21.13;12.98;;;12.80;99.90;;;;;;5028253;28;20809;-70
2022/11/01 00:05:10;;;;;;;23.95;13.57;;;12.70;99.90;;;;;;5031560;28;20033;-70
2022/11/01 00:07:35;;;;;;;20.65;11.98;;;12.80;99.90;;;;;;5030890;28;20029;-70
2022/11/01 00:10:02;;;;;;;19.75;12.05;;;12.70;99.90;;;;;;5027211;28;20496;-71
2022/11/01 00:12:29;;;;;;;20.88;12.10;;;12.70;99.90;;;;;;5030131;28;20057;-71
2022/11/01 00:14:55;;;;;;;21.90;13.48;;;12.60;99.90;;;;;;5031596;28;20702;-71
2022/11/01 00:17:20;;;;;;;22.17;12.18;;;12.60;99.90;;;;;;5029259;28;20139;-71
2022/11/01 00:19:46;;;;;;;22.50;13.10;;;12.80;99.90;;;;;;5029953;28;20359;-71
2022/11/01 00:22:12;;;;;;;20.83;12.20;;;12.80;99.90;;;;;;5029417;28;20056;-71
2022/11/01 00:24:37;;;;;;;20.55;11.93;;;12.80;99.90;;;;;;5028887;28;20025;-71
2022/11/01 00:27:03;;;;;;;18.80;11.75;;;12.80;99.90;;;;;;5029363;28;20102;-71
2022/11/01 00:29:28;;;;;;;20.05;11.38;;;12.80;99.90;;;;;;5028110;28;20048;-72
2022/11/01 00:31:54;;;;;;;23.02;11.98;;;12.80;99.90;;;;;;5033864;28;20028;-72
2022/11/01 00:34:19;;;;;;;18.27;11.57;;;12.80;99.90;;;;;;5031271;28;20648;-72
2022/11/01 00:36:45;;;;;;;20.85;10.77;;;12.80;99.90;;;;;;5015292;28;20311;-71
2022/11/01 00:39:14;;;;;;;19.98;11.80;;;12.80;99.90;;;;;;5028224;28;20029;-71
2022/11/01 00:41:40;;;;;;;21.13;11.95;;;12.80;99.90;;;;;;5031708;28;20086;-70
2022/11/01 00:44:06;;;;;;;17.55;10.98;;;12.70;99.90;;;;;;5032867;28;20028;-70
2022/11/01 00:46:33;;;;;;;20.45;11.30;;;12.70;99.90;;;;;;5030009;28;20170;-70
2022/11/01 00:48:59;;;;;;;19.73;11.05;;;12.70;99.90;;;;;;5016167;28;20071;-70
2022/11/01 00:51:26;;;;;;;17.20;10.82;;;12.70;99.90;;;;;;5007590;28;20037;-70
2022/11/01 00:53:52;;;;;;;16.48;10.80;;;12.70;99.90;;;;;;5029171;28;20064;-70
2022/11/01 00:56:17;;;;;;;18.80;11.63;;;12.70;99.90;;;;;;5029425;28;20457;-70
2022/11/01 00:58:43;;;;;;;20.77;10.73;;;12.70;99.90;;;;;;5026384;28;20029;-70
2022/11/01 01:01:09;;;;;;;22.48;12.50;;;12.80;99.90;;;;;;5028884;28;20152;-70
2022/11/01 01:03:35;;;;;;;20.85;11.93;;;12.80;99.90;;;;;;5034403;28;20042;-70
2022/11/01 01:06:00;;;;;;;19.50;11.18;;;12.80;99.90;;;;;;5031919;28;20036;-69
2022/11/01 01:08:26;;;;;;;25.95;12.38;;;12.80;99.90;;;;;;5031123;28;20132;-70
2022/11/01 01:10:52;;;;;;;24.92;12.45;;;12.70;99.90;;;;;;5030110;28;20034;-71
2022/11/01 01:13:18;;;;;;;23.65;12.77;;;12.70;99.90;;;;;;5030343;28;20033;-70
2022/11/01 01:15:44;;;;;;;19.42;12.25;;;12.70;99.90;;;;;;5032538;28;20055;-70
2022/11/01 01:18:10;;;;;;;19.52;11.38;;;12.70;99.90;;;;;;5032319;28;20033;-71
2022/11/01 01:20:36;;;;;;;18.25;11.00;;;12.70;99.90;;;;;;5028847;28;20116;-70
2022/11/01 01:23:01;;;;;;;18.52;10.73;;;12.60;99.90;;;;;;5025129;28;20539;-70
2022/11/01 01:25:27;;;;;;;23.25;11.20;;;12.60;99.90;;;;;;5026438;28;20053;-70
2022/11/01 01:27:54;;;;;;;19.90;9.80;;;12.60;99.90;;;;;;5026822;28;20115;-70
2022/11/01 01:30:20;;;;;;;18.77;10.30;;;12.70;99.90;;;;;;5021372;28;20037;-70
2022/11/01 01:32:45;;;;;;;17.05;9.77;;;12.70;99.90;;;;;;5010403;28;20489;-70
2022/11/01 01:35:11;;;;;;;24.27;10.27;;;12.80;99.90;;;;;;5029171;28;20029;-70
2022/11/01 01:37:37;;;;;;;19.05;11.15;;;12.80;99.90;;;;;;5029405;28;20049;-70
2022/11/01 01:40:04;;;;;;;20.40;10.48;;;12.80;99.90;;;;;;5028235;28;20026;-69
2022/11/01 01:42:33;;;;;;;19.92;10.52;;;12.80;99.90;;;;;;5027672;28;20112;-70
2022/11/01 01:45:09;;;;;;;19.02;10.70;;;12.70;99.90;;;;;;5015992;28;22006;-70
2022/11/01 01:47:40;;;;;;;16.15;10.63;;;12.60;99.90;;;;;;5027055;28;20176;-74
2022/11/01 01:50:09;;;;;;;17.45;10.38;;;12.70;99.90;;;;;;5025862;28;20707;-74
2022/11/01 01:52:42;;;;;;;19.73;11.23;;;12.70;99.90;;;;;;5028769;28;20440;-77
2022/11/01 01:55:09;;;;;;;19.38;10.43;;;12.70;99.90;;;;;;5028203;28;20064;-74
2022/11/01 01:57:36;;;;;;;18.27;11.23;;;12.60;99.90;;;;;;5031894;28;20539;-76
2022/11/01 02:00:04;;;;;;;22.45;12.20;;;12.60;99.90;;;;;;5024564;28;20029;-76
2022/11/01 02:02:30;;;;;;;18.42;11.10;;;12.60;99.90;;;;;;5029386;28;20025;-70
2022/11/01 02:05:23;;;;;;;15.98;10.15;;;12.60;99.90;;;;;;5027634;28;20043;-71
2022/11/01 02:07:49;;;;;;;18.67;9.82;;;12.60;99.90;;;;;;5013692;28;20124;-76
2022/11/01 02:10:15;;;;;;;16.98;10.00;;;12.60;99.90;;;;;;5024331;28;20052;-77
2022/11/01 02:12:47;;;;;;;15.63;9.48;;;12.60;99.90;;;;;;5028211;28;20060;-77
2022/11/01 02:15:13;;;;;;;16.13;8.98;;;12.60;99.90;;;;;;5025951;28;20041;-77
2022/11/01 02:17:52;;;;;;;17.85;10.10;;;12.60;99.90;;;;;;5028398;28;20081;-78
2022/11/01 02:20:36;;;;;;;17.20;10.18;;;12.50;99.90;;;;;;5027473;28;20044;-77
2022/11/01 02:23:23;;;;;;;20.00;10.43;;;12.60;99.90;;;;;;5028273;28;20060;-77
2022/11/01 02:26:37;;;;;;;21.77;11.00;;;12.50;99.90;;;;;;5025174;28;20830;-76
2022/11/01 02:29:20;;;;;;;19.05;10.38;;;12.50;99.90;;;;;;4948006;28;20055;-75
2022/11/01 02:32:24;;;;;;;16.15;10.35;;;12.50;99.90;;;;;;5010634;28;20029;-74
2022/11/01 02:35:04;;;;;;;15.65;9.93;;;12.50;99.90;;;;;;5026503;28;20025;-75
2022/11/01 02:37:43;;;;;;;16.88;10.70;;;12.50;99.90;;;;;;5026587;28;20032;-75
2022/11/01 02:40:15;;;;;;;16.85;9.43;;;12.50;99.90;;;;;;5028387;28;20445;-70
2022/11/01 02:42:45;;;;;;;17.88;9.35;;;12.50;99.90;;;;;;5026918;28;20281;-70
2022/11/01 02:45:49;;;;;;;16.17;10.00;;;12.50;99.90;;;;;;5027027;28;20033;-70
2022/11/01 02:48:18;;;;;;;19.02;10.73;;;12.50;99.90;;;;;;4937083;28;20106;-70
2022/11/01 02:50:57;;;;;;;16.15;10.43;;;12.50;99.90;;;;;;5010747;28;20045;-71
2022/11/01 02:53:23;;;;;;;17.02;9.48;;;12.50;99.90;;;;;;5027617;28;20026;-70
2022/11/01 02:55:51;;;;;;;15.55;9.63;;;12.50;99.90;;;;;;5027107;28;20034;-70
2022/11/01 02:58:22;;;;;;;18.80;9.75;;;12.50;99.90;;;;;;5027359;28;20058;-70
2022/11/01 03:00:48;;;;;;;17.05;9.43;;;12.50;99.90;;;;;;5025345;28;20545;-70
2022/11/01 03:03:32;;;;;;;14.85;9.65;;;12.60;99.90;;;;;;5028290;28;20139;-70
2022/11/01 03:06:11;;;;;;;18.33;9.93;;;12.60;99.90;;;;;;5022291;28;20121;-70
2022/11/01 03:08:44;;;;;;;16.25;9.80;;;12.60;99.90;;;;;;5026366;28;20036;-70
2022/11/01 03:11:22;;;;;;;17.55;10.10;;;12.60;99.90;;;;;;5025762;28;20033;-71
2022/11/01 03:14:12;;;;;;;16.58;10.05;;;12.50;99.90;;;;;;5025354;28;20036;-70
2022/11/01 03:16:52;;;;;;;15.80;9.20;;;12.50;99.90;;;;;;5011864;28;20048;-71
2022/11/01 03:19:21;;;;;;;16.10;10.18;;;12.50;99.90;;;;;;5027600;28;20033;-70
2022/11/01 03:22:11;;;;;;;15.55;8.75;;;12.50;99.90;;;;;;5024175;28;20025;-70
2022/11/01 03:24:45;;;;;;;14.48;8.68;;;12.60;99.90;;;;;;5027577;28;20048;-70
2022/11/01 03:27:27;;;;;;;18.75;9.32;;;12.50;99.90;;;;;;5024989;28;20073;-70
2022/11/01 03:29:57;;;;;;;;;;;12.50;99.90;;;;;;5026226;28;20033;-70
2022/11/01 03:32:29;;;;;;;15.38;8.60;;;12.50;99.90;;;;;;5027480;28;20008;-71
2022/11/01 03:34:58;;;;;;;13.95;8.48;;;12.50;99.90;;;;;;5012598;28;20017;-71
2022/11/01 03:37:24;;;;;;;12.25;8.02;;;12.50;99.90;;;;;;5025409;28;20079;-70
2022/11/01 03:39:52;;;;;;;13.90;8.30;;;12.50;99.90;;;;;;5021550;28;20029;-76
2022/11/01 03:42:20;;;;;;;12.57;8.10;;;12.60;99.90;;;;;;5022390;28;20057;-75
2022/11/01 03:44:49;;;;;;;14.07;8.82;;;12.60;99.90;;;;;;5034297;28;20025;-76
2022/11/01 03:47:15;;;;;;;14.05;8.82;;;12.50;99.90;;;;;;5032092;28;20037;-76
2022/11/01 03:49:40;;;;;;;13.18;8.07;;;12.50;99.90;;;;;;5032235;28;20033;-76
2022/11/01 03:52:06;;;;;;;13.65;8.90;;;12.50;99.90;;;;;;5026434;28;20646;-76
2022/11/01 03:54:32;;;;;;;15.27;8.68;;;12.40;99.90;;;;;;5026214;28;20025;-76
2022/11/01 03:56:57;;;;;;;12.40;8.30;;;12.50;99.90;;;;;;5027486;28;20036;-76
2022/11/01 03:59:23;;;;;;;13.70;8.27;;;12.60;99.90;;;;;;5030576;28;20021;-76
2022/11/01 04:01:49;;;;;;;13.65;8.15;;;12.50;99.90;;;;;;5030283;28;20049;-76
2022/11/01 04:04:14;;;;;;;13.63;7.97;;;12.60;99.90;;;;;;5030941;28;20026;-76
2022/11/01 04:06:40;;;;;;;14.52;7.57;;;12.50;99.90;;;;;;5029540;28;20056;-76
2022/11/01 04:09:05;;;;;;;13.65;7.78;;;12.50;99.90;;;;;;5028197;28;20037;-76
2022/11/01 04:11:31;;;;;;;13.85;8.20;;;12.50;99.90;;;;;;5028595;28;20048;-76
2022/11/01 04:20:31;;;;;;;12.35;7.45;;;12.50;99.90;;;;;;5006768;28;20025;-76
2022/11/01 04:22:16;;;;;;;13.77;7.55;;;12.50;99.90;;;;;;4982809;28;20037;-76
2022/11/01 04:24:41;;;;;;;12.60;7.65;;;12.50;99.90;;;;;;5023902;28;20033;-76
2022/11/01 04:27:07;;;;;;;9.93;6.65;;;12.60;99.90;;;;;;5026351;28;20080;-76
2022/11/01 04:29:32;;;;;;;11.50;6.72;;;12.60;99.90;;;;;;5025505;28;20029;-76
2022/11/01 04:31:58;;;;;;;10.25;6.72;;;12.50;99.90;;;;;;5026876;28;20033;-76
2022/11/01 04:34:42;;;;;;;11.07;6.85;;;12.60;99.90;;;;;;5028199;28;20029;-76
2022/11/01 04:37:08;;;;;;;8.15;6.10;;;12.50;99.90;;;;;;5012251;28;20501;-76
2022/11/01 04:39:34;;;;;;;10.38;6.70;;;12.60;99.90;;;;;;5032784;28;20032;-71
2022/11/01 04:41:59;;;;;;;8.05;6.03;;;12.60;99.90;;;;;;5028362;28;21304;-71
2022/11/01 04:44:25;;;;;;;8.32;6.40;;;12.60;99.90;;;;;;5032658;28;20037;-71
2022/11/01 04:46:51;;;;;;;8.52;5.72;;;12.50;99.90;;;;;;5025927;28;20028;-71
2022/11/01 04:49:16;;;;;;;7.95;5.85;;;12.60;99.90;;;;;;5033168;28;20072;-71
2022/11/01 04:51:42;;;;;;;9.98;5.35;;;12.60;99.90;;;;;;5030833;28;20033;-71
2022/11/01 04:54:07;;;;;;;10.07;5.97;;;12.60;99.90;;;;;;5034283;28;20029;-76
2022/11/01 04:56:33;;;;;;;9.27;5.38;;;12.60;99.90;;;;;;5031234;28;20471;-76
2022/11/01 04:58:58;;;;;;;9.23;5.47;;;12.50;99.90;;;;;;5030245;28;20057;-76
2022/11/01 05:01:24;;;;;;;10.32;6.13;;;12.50;99.90;;;;;;5029965;28;20475;-76
2022/11/01 05:03:50;;;;;;;8.02;6.00;;;12.50;99.90;;;;;;5027491;28;20026;-76
2022/11/01 05:06:16;;;;;;;8.48;5.72;;;12.40;99.90;;;;;;5029653;28;20502;-75
2022/11/01 05:08:41;;;;;;;9.25;5.82;;;12.40;99.90;;;;;;5009737;28;20056;-76
2022/11/01 05:11:07;;;;;;;11.30;5.78;;;12.40;99.90;;;;;;5029363;28;20032;-76
2022/11/01 05:13:32;;;;;;;9.40;6.00;;;12.50;99.90;;;;;;5031056;28;20040;-76
2022/11/01 05:16:02;;;;;;;9.02;5.53;;;12.50;99.90;;;;;;5029005;28;20045;-76
2022/11/01 05:18:28;;;;;;;8.02;5.82;;;12.50;99.90;;;;;;5033036;28;20033;-71
2022/11/01 05:20:55;;;;;;;6.80;5.40;;;12.50;99.90;;;;;;5028106;28;20021;-71
2022/11/01 05:23:21;;;;;;;8.75;5.75;;;12.50;99.90;;;;;;5029498;28;20031;-70
2022/11/01 05:25:46;;;;;;;8.68;5.93;;;12.50;99.90;;;;;;5028553;28;20025;-70
2022/11/01 05:28:13;;;;;;;7.22;5.60;;;12.50;99.90;;;;;;5032353;28;20033;-70
2022/11/01 05:30:40;;;;;;;9.20;5.97;;;12.50;99.90;;;;;;5028620;28;20033;-71
2022/11/01 05:33:06;;;;;;;9.32;5.75;;;12.50;99.90;;;;;;5025264;28;20030;-71
2022/11/01 05:35:33;;;;;;;8.05;5.63;;;12.50;99.90;;;;;;5027120;28;20043;-71
2022/11/01 05:38:00;;;;;;;9.65;6.28;;;12.50;99.90;;;;;;5025405;28;20030;-71
2022/11/01 05:40:26;;;;;;;8.18;5.72;;;12.50;99.90;;;;;;5019017;28;20543;-71
2022/11/01 05:42:51;;;;;;;8.05;5.85;;;12.50;99.90;;;;;;5028332;28;20025;-71
2022/11/01 05:45:17;;;;;;;5.57;4.65;;;12.50;99.90;;;;;;5027851;28;20037;-71
2022/11/01 05:47:42;;;;;;;11.20;5.03;;;12.50;99.90;;;;;;5029337;28;20071;-72
2022/11/01 05:50:10;;;;;;;6.28;4.90;;;12.40;99.90;;;;;;5026571;28;20040;-70
2022/11/01 05:52:36;;;;;;;6.75;4.70;;;12.40;99.90;;;;;;5034360;28;20028;-71
2022/11/01 05:55:02;;;;;;;6.38;4.60;;;12.40;99.90;;;;;;5029328;28;20037;-75
2022/11/01 05:57:27;;;;;;;5.53;4.55;;;12.40;99.90;;;;;;5031284;28;20029;-75
2022/11/01 05:59:53;;;;;;;6.03;4.80;;;12.40;99.90;;;;;;5029174;28;20468;-76
2022/11/01 06:02:19;;;;;;;5.72;4.93;;;12.40;99.90;;;;;;5030538;28;20108;-76
2022/11/01 06:04:44;;;;;;;8.60;5.43;;;12.40;99.90;;;;;;5028195;28;20494;-76
2022/11/01 06:07:10;;;;;;;12.13;6.05;;;12.40;99.90;;;;;;5034215;28;20021;-76
2022/11/01 06:09:35;;;;;;;7.03;5.60;;;12.40;99.90;;;;;;5028142;28;20037;-76
2022/11/01 06:12:01;;;;;;;10.30;6.45;;;12.40;99.90;;;;;;5030217;28;20028;-75
2022/11/01 06:14:26;;;;;;;11.15;7.93;;;12.40;99.90;;;;;;5028923;28;20021;-76
2022/11/01 06:16:52;;;;;;;9.73;6.70;;;12.30;99.90;;;;;;5026861;28;20518;-76
2022/11/01 06:19:17;;;;;;;7.63;6.18;;;12.40;99.90;;;;;;5026556;28;20754;-76
2022/11/01 06:21:43;;;;;;;8.85;6.03;;;12.30;99.90;;;;;;5030611;28;20033;-76
2022/11/01 06:24:10;;;;;;;8.57;6.38;;;12.30;99.90;;;;;;5029186;28;20043;-75
2022/11/01 06:26:36;;;;;;;7.05;6.35;;;12.30;99.90;;;;;;5029871;28;20061;-75
2022/11/01 06:29:03;;;;;;;8.93;6.38;;;12.30;99.90;;;;;;5023579;28;20057;-76
2022/11/01 06:31:29;;;;;;;7.80;6.80;;;12.40;99.90;;;;;;5030367;28;20116;-75
2022/11/01 06:33:54;;;;;;;12.32;8.27;;;12.30;99.90;;;;;;5030868;28;20116;-70
2022/11/01 06:36:21;;;;;;;12.85;8.73;;;12.30;99.90;;;;;;5029691;28;20037;-71
2022/11/01 06:38:47;;;;;;;39.25;20.65;;;12.30;99.90;;;;;;5024832;28;20021;-71
2022/11/01 06:41:12;;;;;;;40.05;22.30;;;12.30;99.90;;;;;;5026875;28;20048;-72
2022/11/01 06:43:38;;;;;;;11.13;8.18;;;12.30;99.90;;;;;;5028842;28;20067;-71
2022/11/01 06:46:03;;;;;;;10.18;7.45;;;12.30;99.90;;;;;;5007963;28;20060;-71
2022/11/01 06:48:29;;;;;;;10.07;6.57;;;12.30;99.90;;;;;;5030515;28;20075;-71
2022/11/01 06:50:55;;;;;;;7.55;5.22;;;12.40;99.90;;;;;;5028854;28;20494;-71
2022/11/01 06:53:24;;;;;;;22.98;10.35;;;12.40;99.90;;;;;;5029379;28;20406;-71
2022/11/01 06:55:51;;;;;;;29.50;15.18;;;12.30;99.90;;;;;;5029857;28;20087;-70
2022/11/01 06:58:17;;;;;;;24.90;14.07;;;12.30;99.90;;;;;;5025684;28;20022;-70
2022/11/01 07:00:43;;;;;;;13.95;9.25;;;12.40;99.90;;;;;;5026121;28;20025;-70
2022/11/01 07:03:11;;;;;;;29.02;20.20;;;12.40;99.90;;;;;;5028993;28;20091;-71
2022/11/01 07:05:38;;;;;;;21.33;15.07;;;12.40;99.90;;;;;;5032173;28;20048;-71
2022/11/01 07:08:10;;;;;;;11.30;8.40;;;12.40;99.90;;;;;;5026275;28;20103;-71
2022/11/01 07:10:37;;;;;;;12.27;10.07;;;12.40;99.90;;;;;;5033249;28;20041;-71
2022/11/01 07:13:05;;;;;;;24.65;19.77;;;12.40;99.90;;;;;;5027769;28;20025;-71
2022/11/01 07:15:31;;;;;;;21.17;17.48;;;12.40;99.90;;;;;;5025934;28;20057;-70
2022/11/01 07:17:58;;;;;;;14.70;10.80;;;12.40;99.90;;;;;;5007420;28;20025;-71
2022/11/01 07:20:24;;;;;;;11.80;8.95;;;12.40;99.90;;;;;;5027735;28;20517;-71
2022/11/01 07:23:04;;;;;;;17.13;11.35;;;12.40;99.90;;;;;;5029130;28;20033;-71
2022/11/01 07:25:31;;;;;;;10.52;7.93;;;12.40;99.90;;;;;;5025984;28;20080;-71
2022/11/01 07:27:58;;;;;;;10.73;7.78;;;12.40;99.90;;;;;;5023031;28;20022;-71
2022/11/01 07:30:24;;;;;;;6.75;6.05;;;12.40;99.90;;;;;;5022620;28;20100;-75
2022/11/01 07:32:57;;;;;;;19.85;12.50;;;12.40;99.90;;;;;;5029085;28;20026;-75
2022/11/01 07:35:24;;;;;;;16.92;12.07;;;12.50;99.90;;;;;;5026557;28;20774;-75
2022/11/01 07:37:50;;;;;;;8.50;7.00;;;12.40;99.90;;;;;;5027760;28;20026;-67
2022/11/01 07:40:16;;;;;;;8.35;5.63;;;12.40;99.90;;;;;;5027744;28;20090;-76
2022/11/01 07:42:43;;;;;;;7.38;5.22;;;12.60;99.90;;;;;;5026393;28;20041;-75
2022/11/01 07:45:10;;;;;;;6.20;4.93;;;12.60;99.90;;;;;;5002998;28;20069;-76
2022/11/01 07:47:36;;;;;;;7.47;4.68;;;12.60;99.90;;;;;;5026807;28;20119;-74
2022/11/01 07:50:02;;;;;;;6.25;5.60;;;12.60;99.90;;;;;;5015934;28;20128;-71
2022/11/01 07:52:27;;;;;;;8.85;6.60;;;12.60;99.90;;;;;;5030023;28;20104;-71
2022/11/01 07:54:53;;;;;;;6.20;5.13;;;12.50;99.90;;;;;;5026396;28;20509;-72
2022/11/01 07:57:18;;;;;;;8.68;5.10;;;12.50;99.90;;;;;;5025633;28;20026;-70
2022/11/01 07:59:44;;;;;;;6.88;5.40;;;12.60;99.90;;;;;;5022736;28;20088;-71
2022/11/01 08:02:09;;;;;;;7.90;7.10;;;12.60;99.90;;;;;;5023917;28;20095;-72
2022/11/01 08:04:35;;;;;;;9.27;6.82;;;12.60;99.90;;;;;;5030212;28;20051;-71
2022/11/01 08:07:00;;;;;;;8.35;6.03;;;12.60;99.90;;;;;;5027977;28;20104;-71
2022/11/01 08:09:26;;;;;;;7.93;6.30;;;12.50;99.90;;;;;;5029806;28;20733;-72
2022/11/01 08:11:51;;;;;;;9.07;7.20;;;12.60;99.90;;;;;;5029477;28;20024;-73
2022/11/01 08:14:17;;;;;;;9.23;6.70;;;12.50;99.90;;;;;;5031751;28;20029;-74
2022/11/01 08:16:43;;;;;;;9.23;7.00;;;12.50;99.90;;;;;;5027729;28;20045;-74
2022/11/01 08:19:09;;;;;;;8.10;6.68;;;12.60;99.90;;;;;;5026917;28;20025;-73
2022/11/01 08:21:35;;;;;;;7.53;5.30;;;12.60;99.90;;;;;;5032312;28;20386;-73
2022/11/01 08:24:01;;;;;;;7.25;6.05;;;12.60;99.90;;;;;;5030599;28;20103;-73
2022/11/01 08:26:26;;;;;;;10.75;6.00;;;12.60;99.90;;;;;;5026154;28;20145;-72
2022/11/01 08:28:52;;;;;;;6.88;6.10;;;12.60;99.90;;;;;;5029903;28;20120;-71
2022/11/01 08:31:17;;;;;;;9.63;7.80;;;12.60;99.90;;;;;;5031828;28;20037;-72
2022/11/01 08:33:44;;;;;;;9.75;7.30;;;12.60;99.90;;;;;;5029094;28;20529;-72
2022/11/01 08:36:09;;;;;;;8.25;6.97;;;12.70;99.90;;;;;;5031165;28;20033;-72
2022/11/01 08:38:35;;;;;;;8.90;7.35;;;12.60;99.90;;;;;;5029774;28;20483;-74
2022/11/01 08:41:00;;;;;;;9.60;7.35;;;12.60;99.90;;;;;;5027738;28;20577;-71
2022/11/01 08:43:26;;;;;;;9.68;7.05;;;12.60;99.90;;;;;;5031614;28;20433;-71
2022/11/01 08:45:52;;;;;;;8.43;6.68;;;12.60;99.90;;;;;;5030732;28;20088;-71
2022/11/01 08:48:17;;;;;;;9.27;6.97;;;12.50;99.90;;;;;;5015716;28;20060;-75
2022/11/01 08:50:43;;;;;;;10.85;7.63;;;12.40;99.90;;;;;;5029561;28;20117;-75
2022/11/01 08:53:13;;;;;;;9.65;6.38;;;12.40;99.90;;;;;;5029480;28;20029;-75
2022/11/01 08:55:39;;;;;;;10.40;7.40;;;12.50;99.90;;;;;;5029842;28;20028;-75
2022/11/01 08:58:06;;;;;;;8.20;6.50;;;12.50;99.90;;;;;;5027137;28;20421;-76
2022/11/01 09:00:32;;;;;;;8.00;6.45;;;12.50;99.90;;;;;;5016874;28;20025;-75
2022/11/01 09:02:57;;;;;;;8.55;6.68;;;12.50;99.90;;;;;;5031445;28;20033;-75
2022/11/01 09:05:23;;;;;;;16.40;13.63;;;12.60;99.90;;;;;;5030297;28;20093;-75
2022/11/01 09:07:54;;;;;;;8.63;7.47;;;12.50;99.90;;;;;;5008385;28;20043;-75
2022/11/01 09:10:19;;;;;;;9.37;8.13;;;12.50;99.90;;;;;;5028705;28;20088;-76
2022/11/01 09:12:45;;;;;;;10.95;8.05;;;12.40;99.90;;;;;;5028174;28;20917;-75
2022/11/01 09:15:11;;;;;;;11.90;8.88;;;12.50;99.90;;;;;;5030443;28;20122;-76
2022/11/01 09:17:36;;;;;;;11.75;8.85;;;12.50;99.90;;;;;;5023533;28;20134;-75
2022/11/01 09:20:03;;;;;;;13.07;10.65;;;12.50;99.90;;;;;;5027386;28;20031;-76
2022/11/01 09:22:29;;;;;;;13.25;7.90;;;12.40;99.90;;;;;;5028562;28;20034;-75
2022/11/01 09:24:56;;;;;;;9.57;7.38;;;12.40;99.90;;;;;;5027785;28;20040;-75
2022/11/01 09:27:22;;;;;;;9.57;7.13;;;12.40;99.90;;;;;;5030989;28;20441;-76
2022/11/01 09:29:47;;;;;;;9.35;7.45;;;12.30;99.90;;;;;;5027665;28;20049;-76
2022/11/01 09:32:13;;;;;;;12.52;8.60;;;12.30;99.90;;;;;;5027004;28;20662;-76
2022/11/01 09:34:38;;;;;;;12.45;8.15;;;12.30;99.90;;;;;;5027608;28;20043;-76
2022/11/01 09:37:04;;;;;;;25.73;21.02;;;12.20;99.90;;;;;;5025607;28;20056;-76
2022/11/01 09:39:30;;;;;;;15.60;13.48;;;12.30;99.90;;;;;;5028275;28;20029;-72
2022/11/01 09:42:02;;;;;;;15.82;14.07;;;12.30;99.90;;;;;;5024846;28;20044;-76
2022/11/01 09:44:42;;;;;;;32.20;27.52;;;12.40;99.90;;;;;;5031366;28;20063;-73
2022/11/01 09:47:19;;;;;;;9.23;7.22;;;12.40;99.90;;;;;;5029381;28;20601;-75
2022/11/01 09:49:49;;;;;;;10.45;7.07;;;12.40;99.90;;;;;;5027792;28;20033;-75
2022/11/01 09:52:20;;;;;;;11.57;7.50;;;12.50;99.90;;;;;;5032874;28;20029;-75
2022/11/01 09:54:46;;;;;;;9.00;6.90;;;12.60;99.90;;;;;;5031248;28;20084;-76
2022/11/01 09:57:34;;;;;;;9.13;6.82;;;12.60;99.90;;;;;;5027956;28;20366;-73
2022/11/01 10:00:13;;;;;;;10.43;6.78;;;12.60;99.90;;;;;;5029356;28;20607;-76
2022/11/01 10:03:03;;;;;;;25.75;22.98;;;12.60;99.90;;;;;;5030632;28;20056;-75
2022/11/01 10:05:29;;;;;;;13.35;11.45;;;12.60;99.90;;;;;;5030595;28;20040;-76
2022/11/01 10:08:06;;;;;;;13.00;10.35;;;12.60;99.90;;;;;;5026325;28;20030;-74
2022/11/01 10:10:55;;;;;;;16.38;12.20;;;12.60;99.90;;;;;;5032302;28;20103;-74
2022/11/01 10:13:43;;;;;;;15.40;7.82;;;12.60;99.90;;;;;;5011750;28;20121;-74
2022/11/01 10:16:21;;;;;;;12.00;9.88;;;12.60;99.90;;;;;;5028983;28;20041;-76
2022/11/01 10:19:10;;;;;;;9.68;7.38;;;12.60;99.90;;;;;;5025680;28;20030;-75
2022/11/01 10:21:43;;;;;;;10.45;7.40;;;12.60;99.90;;;;;;5026801;28;20044;-76
2022/11/01 10:24:23;;;;;;;8.13;7.03;;;12.60;99.90;;;;;;5025136;28;20505;-69
2022/11/01 10:26:55;;;;;;;14.77;7.55;;;12.60;99.90;;;;;;5025783;28;20474;-69
2022/11/01 10:29:41;;;;;;;12.00;8.02;;;12.70;99.90;;;;;;5031069;28;20155;-68
2022/11/01 10:32:36;;;;;;;10.80;8.00;;;12.80;99.90;;;;;;5028726;28;20035;-68
2022/11/01 10:35:26;;;;;;;12.48;8.80;;;12.90;99.90;;;;;;5032807;28;20395;-68
2022/11/01 10:38:16;;;;;;;10.18;8.15;;;12.90;99.90;;;;;;5031766;28;20036;-68
2022/11/01 10:40:48;;;;;;;13.95;8.68;;;13.10;99.90;;;;;;5027043;28;20032;-68
2022/11/01 10:43:18;;;;;;;7.88;7.00;;;13.20;99.90;;;;;;5028076;28;20036;-68
2022/11/01 10:45:46;;;;;;;12.30;7.22;;;13.20;99.90;;;;;;5031075;28;20024;-68
2022/11/01 10:48:36;;;;;;;10.65;7.72;;;13.40;99.90;;;;;;5023734;28;20100;-75
2022/11/01 10:51:05;;;;;;;9.60;7.68;;;13.50;99.90;;;;;;5010637;28;20132;-74
2022/11/01 10:53:43;;;;;;;9.10;6.88;;;13.50;99.90;;;;;;5030533;28;20442;-74
2022/11/01 10:56:17;;;;;;;15.05;9.88;;;13.40;99.90;;;;;;5008062;28;20056;-69
2022/11/01 10:58:52;;;;;;;10.10;8.10;;;13.50;99.90;;;;;;5011014;28;20037;-68
2022/11/01 11:01:25;;;;;;;10.38;7.90;;;13.90;99.90;;;;;;5012316;28;20028;-69
2022/11/01 11:03:53;;;;;;;16.08;8.48;;;13.90;99.90;;;;;;5016286;28;20356;-70
2022/11/01 11:06:19;;;;;;;8.45;7.55;;;13.90;99.90;;;;;;5011452;28;20030;-69
2022/11/01 11:08:50;;;;;;;10.43;7.72;;;13.80;99.90;;;;;;5013252;28;20550;-68
2022/11/01 11:11:19;;;;;;;9.10;6.83;;;13.70;99.90;;;;;;5014952;28;20032;-69
2022/11/01 11:13:49;;;;;;;20.33;9.70;;;13.60;99.90;;;;;;5014604;28;20029;-74
2022/11/01 11:16:24;;;;;;;16.90;10.07;;;13.90;99.90;;;;;;5016017;28;20167;-74
2022/11/01 11:19:01;;;;;;;12.23;8.95;;;13.90;99.90;;;;;;5025356;28;20138;-74
2022/11/01 11:21:33;;;;;;;10.63;9.52;;;13.80;99.90;;;;;;5018613;28;20443;-73
2022/11/01 11:23:58;;;;;;;;;;;13.60;99.90;;;;;;5024861;28;20028;-72
2022/11/01 11:26:26;;;;;;;13.18;11.10;;;13.60;99.90;;;;;;5006554;28;19917;-72
2022/11/01 11:28:55;;;;;;;11.13;8.10;;;13.60;99.90;;;;;;5025094;28;20021;-72
2022/11/01 11:31:25;;;;;;;12.60;8.57;;;13.50;99.90;;;;;;5025944;28;20037;-72
2022/11/01 11:33:56;;;;;;;12.07;8.90;;;13.50;99.90;;;;;;5021966;28;20526;-74
2022/11/01 11:36:34;;;;;;;9.95;8.70;;;13.50;99.90;;;;;;5027794;28;20053;-73
2022/11/01 11:39:01;;;;;;;11.75;9.52;;;13.40;99.90;;;;;;5024756;28;20031;-74
2022/11/01 11:41:30;;;;;;;12.07;9.10;;;13.30;99.90;;;;;;5024634;28;20047;-71
2022/11/01 11:43:56;;;;;;;11.38;8.90;;;13.40;99.90;;;;;;5025206;28;20021;-70
2022/11/01 11:46:24;;;;;;;11.80;8.90;;;13.40;99.90;;;;;;5026244;28;20033;-69
2022/11/01 11:48:57;;;;;;;12.40;9.10;;;13.30;99.90;;;;;;5023566;28;20524;-72
2022/11/01 11:51:25;;;;;;;11.25;7.53;;;13.20;99.90;;;;;;5026558;28;20041;-71
2022/11/01 11:54:20;;;;;;;11.45;9.07;;;13.10;99.90;;;;;;5025789;28;20017;-69
2022/11/01 11:56:50;;;;;;;24.52;16.00;;;13.10;99.90;;;;;;5026254;28;20029;-71
2022/11/01 11:59:24;;;;;;;12.85;9.93;;;13.10;99.90;;;;;;5023278;28;20766;-72
2022/11/01 12:01:58;;;;;;;20.23;14.52;;;13.10;99.90;;;;;;5026418;28;20025;-71
2022/11/01 12:04:30;;;;;;;12.27;9.50;;;13.20;99.90;;;;;;5026773;28;20029;-71
2022/11/01 12:06:57;;;;;;;14.25;11.57;;;13.30;99.90;;;;;;5028473;28;20375;-71
2022/11/01 12:09:45;;;;;;;30.77;25.10;;;13.40;99.90;;;;;;5024165;28;20267;-73
2022/11/01 12:12:22;;;;;;;26.17;21.85;;;13.30;99.90;;;;;;5022068;28;20039;-72
2022/11/01 12:14:49;;;;;;;16.55;14.80;;;13.30;99.90;;;;;;5023167;28;20033;-73
2022/11/01 12:17:31;;;;;;;14.07;10.52;;;13.30;99.90;;;;;;5024019;28;20063;-73
2022/11/01 12:20:08;;;;;;;12.93;11.57;;;13.30;99.90;;;;;;5023210;28;20431;-73
2022/11/01 12:22:36;;;;;;;13.32;10.15;;;13.20;99.90;;;;;;5024129;28;20128;-72
2022/11/01 12:25:09;;;;;;;11.95;9.82;;;13.20;99.90;;;;;;4999662;28;20127;-72
2022/11/01 12:27:36;;;;;;;11.23;9.05;;;13.30;99.90;;;;;;5022915;28;20052;-73
2022/11/01 12:30:15;;;;;;;10.35;8.82;;;13.20;99.90;;;;;;5026195;28;20045;-72
2022/11/01 12:32:49;;;;;;;14.57;9.50;;;13.20;99.90;;;;;;5026130;28;20045;-73
2022/11/01 12:35:37;;;;;;;13.20;9.45;;;13.20;99.90;;;;;;5025769;28;20033;-78
2022/11/01 12:38:21;;;;;;;15.20;10.95;;;13.30;99.90;;;;;;5024838;28;20044;-77
2022/11/01 12:40:50;;;;;;;14.75;11.05;;;13.30;99.90;;;;;;5008087;28;21351;-77
2022/11/01 12:43:35;;;;;;;12.98;10.80;;;13.40;99.90;;;;;;5023744;28;20033;-77
2022/11/01 12:46:12;;;;;;;14.35;10.60;;;13.30;99.90;;;;;;5027674;28;20021;-77
2022/11/01 12:48:50;;;;;;;13.70;11.50;;;13.40;99.90;;;;;;5029236;28;20424;-76
2022/11/01 12:51:35;;;;;;;15.70;12.27;;;13.40;99.90;;;;;;5020925;28;20064;-75
2022/11/01 12:54:27;;;;;;;16.42;12.00;;;13.50;99.90;;;;;;5026142;28;20538;-75
2022/11/01 12:56:55;;;;;;;15.10;10.80;;;13.50;99.90;;;;;;5023798;28;20045;-72